createdAt,value
2022-08-27T00:02:23.057Z,99273.62
2022-08-27T00:04:58.419Z,99271.75
2022-08-27T00:07:26.717Z,99275.94
2022-08-27T00:09:54.377Z,99274.47
2022-08-27T00:12:22.987Z,99274.25
2022-08-27T00:14:51.387Z,99278.34
2022-08-27T00:17:19.035Z,99274.78
2022-08-27T00:19:46.487Z,99275.63
2022-08-27T00:22:14.843Z,99282.38
2022-08-27T00:24:48.856Z,99280.69
2022-08-27T00:27:17.108Z,99277.31
2022-08-27T00:29:47.175Z,99280.00
2022-08-27T00:32:15.009Z,99277.63
2022-08-27T00:34:42.654Z,99274.59
2022-08-27T00:37:10.268Z,99280.97
2022-08-27T00:39:37.870Z,99279.81
2022-08-27T00:42:05.548Z,99282.28
2022-08-27T00:44:34.154Z,99286.56
2022-08-27T00:47:04.683Z,99282.31
2022-08-27T00:49:45.849Z,99275.91
2022-08-27T00:52:26.186Z,99279.84
2022-08-27T00:54:54.168Z,99279.78
2022-08-27T00:57:22.188Z,99282.59
2022-08-27T00:59:49.602Z,99290.06
2022-08-27T01:02:20.398Z,99278.69
2022-08-27T01:05:09.724Z,99284.47
2022-08-27T01:07:38.669Z,99293.94
2022-08-27T01:10:07.673Z,99290.34
2022-08-27T01:12:35.004Z,99292.78
2022-08-27T01:15:06.107Z,99293.31
2022-08-27T01:17:37.185Z,99292.06
2022-08-27T01:20:09.341Z,99296.19
2022-08-27T01:22:40.975Z,99293.16
2022-08-27T01:25:10.641Z,99297.88
2022-08-27T01:27:40.179Z,99291.87
2022-08-27T01:30:08.657Z,99292.97
2022-08-27T01:32:38.694Z,99298.00
2022-08-27T01:35:07.759Z,99303.12
2022-08-27T01:37:35.835Z,99297.19
2022-08-27T01:40:04.777Z,99298.75
2022-08-27T01:42:34.054Z,99299.13
2022-08-27T01:45:12.856Z,99308.72
2022-08-27T01:47:40.899Z,99297.09
2022-08-27T01:50:13.113Z,99303.97
2022-08-27T01:52:40.923Z,99308.13
2022-08-27T01:55:09.529Z,99311.47
2022-08-27T01:57:36.754Z,99303.25
2022-08-27T02:00:36.413Z,99314.06
2022-08-27T02:03:04.533Z,99310.28
2022-08-27T02:05:32.811Z,99313.44
2022-08-27T02:08:13.718Z,99312.06
2022-08-27T02:10:41.239Z,99308.22
2022-08-27T02:13:09.667Z,99307.50
2022-08-27T02:15:37.369Z,99303.28
2022-08-27T02:18:05.233Z,99312.06
2022-08-27T02:20:32.555Z,99308.34
2022-08-27T02:23:03.136Z,99304.28
2022-08-27T02:25:30.846Z,99299.22
2022-08-27T02:28:00.580Z,99301.00
2022-08-27T02:30:28.989Z,99300.91
2022-08-27T02:32:56.432Z,99300.84
2022-08-27T02:35:25.675Z,99302.84
2022-08-27T02:37:53.448Z,99294.88
2022-08-27T02:40:21.562Z,99292.19
2022-08-27T02:42:49.160Z,99298.81
2022-08-27T02:45:17.472Z,99293.31
2022-08-27T02:47:45.334Z,99298.56
2022-08-27T02:50:14.679Z,99302.03
2022-08-27T02:52:49.056Z,99300.91
2022-08-27T02:55:23.197Z,99298.88
2022-08-27T02:57:51.463Z,99304.66
2022-08-27T03:00:20.600Z,99297.78
2022-08-27T03:02:48.634Z,99298.34
2022-08-27T03:05:18.893Z,99301.66
2022-08-27T03:07:46.826Z,99292.75
2022-08-27T03:10:16.063Z,99292.09
2022-08-27T03:12:45.945Z,99299.03
2022-08-27T03:15:14.488Z,99297.69
2022-08-27T03:18:02.784Z,99296.69
2022-08-27T03:20:33.337Z,99295.62
2022-08-27T03:23:00.988Z,99304.75
2022-08-27T03:25:28.483Z,99297.75
2022-08-27T03:27:56.077Z,99307.75
2022-08-27T03:30:24.016Z,99303.34
2022-08-27T03:32:51.748Z,99303.59
2022-08-27T03:35:19.788Z,99302.44
2022-08-27T03:37:47.401Z,99295.00
2022-08-27T03:40:15.036Z,99297.84
2022-08-27T03:42:43.072Z,99302.44
2022-08-27T03:45:10.808Z,99302.44
2022-08-27T03:47:38.643Z,99303.62
2022-08-27T03:50:07.296Z,99299.66
2022-08-27T03:52:35.043Z,99301.34
2022-08-27T03:55:04.746Z,99304.47
2022-08-27T03:57:41.177Z,99302.44
2022-08-27T04:00:14.109Z,99311.69
2022-08-27T04:02:44.250Z,99310.62
2022-08-27T04:05:13.174Z,99310.19
2022-08-27T04:07:45.976Z,99314.22
2022-08-27T04:10:24.484Z,99306.84
2022-08-27T04:12:53.942Z,99309.84
2022-08-27T04:15:24.674Z,99306.44
2022-08-27T04:17:54.291Z,99301.47
2022-08-27T04:20:35.057Z,99307.03
2022-08-27T04:23:04.353Z,99294.22
2022-08-27T04:25:32.187Z,99299.75
2022-08-27T04:28:00.099Z,99308.56
2022-08-27T04:30:28.171Z,99305.09
2022-08-27T04:32:55.966Z,99315.16
2022-08-27T04:35:24.715Z,99320.94
2022-08-27T04:37:54.317Z,99307.03
2022-08-27T04:40:21.702Z,99305.19
2022-08-27T04:42:49.353Z,99305.25
2022-08-27T04:45:19.841Z,99304.28
2022-08-27T04:47:47.500Z,99308.53
2022-08-27T04:50:15.576Z,99305.72
2022-08-27T04:52:45.900Z,99300.81
2022-08-27T04:55:18.124Z,99300.81
2022-08-27T04:57:50.269Z,99303.56
2022-08-27T05:00:17.963Z,99303.56
2022-08-27T05:02:45.284Z,99308.03
2022-08-27T05:05:16.055Z,99311.47
2022-08-27T05:07:46.477Z,99310.47
2022-08-27T05:10:21.037Z,99316.16
2022-08-27T05:12:50.150Z,99313.31
2022-08-27T05:15:18.507Z,99310.94
2022-08-27T05:17:47.898Z,99308.22
2022-08-27T05:20:19.597Z,99306.59
2022-08-27T05:22:51.211Z,99303.94
2022-08-27T05:25:21.798Z,99309.72
2022-08-27T05:27:53.828Z,99318.03
2022-08-27T05:30:24.948Z,99307.44
2022-08-27T05:32:53.957Z,99310.94
2022-08-27T05:35:21.999Z,99307.22
2022-08-27T05:37:52.165Z,99310.50
2022-08-27T05:40:20.145Z,99312.63
2022-08-27T05:42:50.252Z,99309.78
2022-08-27T05:45:19.686Z,99308.47
2022-08-27T05:47:49.843Z,99302.00
2022-08-27T05:50:23.570Z,99307.41
2022-08-27T05:52:53.226Z,99313.47
2022-08-27T05:55:23.044Z,99302.16
2022-08-27T05:57:51.669Z,99303.34
2022-08-27T06:03:21.555Z,99302.28
2022-08-27T06:06:00.147Z,99304.59
2022-08-27T06:08:29.651Z,99301.34
2022-08-27T06:11:02.068Z,99299.59
2022-08-27T06:13:31.732Z,99301.25
2022-08-27T06:16:03.936Z,99301.78
2022-08-27T06:18:35.616Z,99303.81
2022-08-27T06:23:38.064Z,99297.03
2022-08-27T06:26:07.102Z,99308.25
2022-08-27T06:28:38.711Z,99308.34
2022-08-27T06:31:36.754Z,99309.09
2022-08-27T06:34:08.041Z,99315.78
2022-08-27T06:36:37.472Z,99313.75
2022-08-27T06:39:17.007Z,99324.88
2022-08-27T06:41:45.609Z,99326.19
2022-08-27T06:44:13.795Z,99318.72
2022-08-27T06:46:42.202Z,99322.06
2022-08-27T06:49:23.482Z,99324.97
2022-08-27T06:51:54.171Z,99324.25
2022-08-27T06:54:22.598Z,99324.31
2022-08-27T06:56:52.853Z,99328.19
2022-08-27T06:59:21.981Z,99333.81
2022-08-27T07:01:54.873Z,99333.28
2022-08-27T07:04:30.791Z,99334.56
2022-08-27T07:07:02.622Z,99330.94
2022-08-27T07:09:32.754Z,99335.53
2022-08-27T07:12:00.861Z,99335.66
2022-08-27T07:14:34.262Z,99330.37
2022-08-27T07:17:15.817Z,99336.19
2022-08-27T07:19:50.864Z,99344.72
2022-08-27T07:22:24.923Z,99344.72
2022-08-27T07:24:53.823Z,99344.72
2022-08-27T07:27:28.360Z,99336.00
2022-08-27T07:33:02.020Z,99340.59
2022-08-27T07:35:36.586Z,99339.38
2022-08-27T07:38:20.692Z,99342.69
2022-08-27T07:40:49.552Z,99351.84
2022-08-27T07:43:37.903Z,99347.28
2022-08-27T07:46:07.937Z,99337.31
2022-08-27T07:48:44.110Z,99342.34
2022-08-27T07:51:20.760Z,99345.72
2022-08-27T07:53:48.884Z,99343.53
2022-08-27T07:56:17.049Z,99352.31
2022-08-27T07:58:45.053Z,99354.78
2022-08-27T08:01:15.077Z,99341.84
2022-08-27T08:03:43.155Z,99343.28
2022-08-27T08:06:14.485Z,99334.97
2022-08-27T08:08:44.026Z,99338.75
2022-08-27T08:11:17.158Z,99338.19
2022-08-27T08:13:47.797Z,99344.81
2022-08-27T08:16:19.599Z,99349.31
2022-08-27T08:18:49.749Z,99342.66
2022-08-27T08:21:17.181Z,99343.41
2022-08-27T08:23:49.461Z,99346.88
2022-08-27T08:26:24.789Z,99347.69
2022-08-27T08:28:52.200Z,99348.53
2022-08-27T08:31:30.621Z,99340.34
2022-08-27T08:34:00.810Z,99346.84
2022-08-27T08:36:29.108Z,99344.56
2022-08-27T08:38:57.878Z,99344.94
2022-08-27T08:41:26.015Z,99353.09
2022-08-27T08:43:54.997Z,99343.47
2022-08-27T08:46:50.075Z,99349.12
2022-08-27T08:49:36.739Z,99345.50
2022-08-27T08:52:30.664Z,99342.25
2022-08-27T08:55:07.324Z,99349.81
2022-08-27T08:57:41.768Z,99342.22
2022-08-27T09:00:13.151Z,99344.16
2022-08-27T09:05:24.064Z,99347.00
2022-08-27T09:08:21.346Z,99342.69
2022-08-27T09:10:49.551Z,99345.34
2022-08-27T09:13:22.360Z,99337.44
2022-08-27T09:15:59.071Z,99334.97
2022-08-27T09:18:30.835Z,99334.75
2022-08-27T09:21:04.919Z,99326.75
2022-08-27T09:23:55.352Z,99328.38
2022-08-27T09:26:25.273Z,99325.44
2022-08-27T09:29:17.057Z,99319.91
2022-08-27T09:31:48.200Z,99319.97
2022-08-27T09:34:19.042Z,99311.44
2022-08-27T09:37:00.846Z,99312.66
2022-08-27T09:39:36.202Z,99305.72
2022-08-27T09:42:06.794Z,99308.50
2022-08-27T09:44:45.209Z,99306.97
2022-08-27T09:47:14.764Z,99311.59
2022-08-27T09:49:43.030Z,99306.06
2022-08-27T09:52:11.436Z,99310.09
2022-08-27T09:54:42.044Z,99312.91
2022-08-27T09:57:12.361Z,99305.81
2022-08-27T09:59:51.612Z,99309.06
2022-08-27T10:02:22.596Z,99289.47
2022-08-27T10:04:52.794Z,99296.31
2022-08-27T10:07:34.112Z,99297.50
2022-08-27T10:10:05.605Z,99305.28
2022-08-27T10:12:42.275Z,99304.78
2022-08-27T10:17:54.183Z,99300.84
2022-08-27T10:20:43.863Z,99299.22
2022-08-27T10:23:21.334Z,99294.66
2022-08-27T10:25:49.066Z,99296.44
2022-08-27T10:28:22.034Z,99303.97
2022-08-27T10:30:54.116Z,99294.72
2022-08-27T10:33:33.069Z,99295.81
2022-08-27T10:36:26.758Z,99298.91
2022-08-27T10:39:15.116Z,99296.19
2022-08-27T10:42:09.908Z,99298.31
2022-08-27T10:44:47.924Z,99301.28
2022-08-27T10:47:36.551Z,99297.88
2022-08-27T10:50:07.003Z,99295.41
2022-08-27T10:52:35.706Z,99294.78
2022-08-27T10:55:06.885Z,99287.81
2022-08-27T10:57:58.895Z,99285.59
2022-08-27T11:00:55.951Z,99293.84
2022-08-27T11:06:29.996Z,99279.94
2022-08-27T11:09:07.672Z,99289.50
2022-08-27T11:12:13.842Z,99285.91
2022-08-27T11:14:32.912Z,99288.75
2022-08-27T11:17:13.416Z,99273.03
2022-08-27T11:20:00.371Z,99275.59
2022-08-27T11:22:31.831Z,99276.19
2022-08-27T11:25:03.841Z,99275.34
2022-08-27T11:27:40.013Z,99270.03
2022-08-27T11:30:29.332Z,99275.50
2022-08-27T11:33:20.867Z,99268.66
2022-08-27T11:35:59.330Z,99275.84
2022-08-27T11:38:37.892Z,99261.09
2022-08-27T11:41:27.924Z,99265.44
2022-08-27T11:43:56.276Z,99257.47
2022-08-27T11:46:25.823Z,99262.69
2022-08-27T11:48:59.909Z,99249.47
2022-08-27T11:51:37.162Z,99254.13
2022-08-27T11:54:08.743Z,99251.38
2022-08-27T11:56:41.702Z,99249.53
2022-08-27T11:59:23.740Z,99247.25
2022-08-27T12:01:54.904Z,99240.59
2022-08-27T12:04:23.387Z,99238.56
2022-08-27T12:07:02.734Z,99239.37
2022-08-27T12:09:44.124Z,99236.31
2022-08-27T12:12:16.937Z,99235.69
2022-08-27T12:14:55.994Z,99226.44
2022-08-27T12:17:38.671Z,99221.38
2022-08-27T12:20:19.887Z,99219.66
2022-08-27T12:23:26.881Z,99220.09
2022-08-27T12:26:04.239Z,99217.41
2022-08-27T12:28:33.931Z,99220.03
2022-08-27T12:31:07.908Z,99225.00
2022-08-27T12:33:36.041Z,99211.72
2022-08-27T12:36:13.940Z,99214.31
2022-08-27T12:39:00.067Z,99211.34
2022-08-27T12:41:44.722Z,99209.81
2022-08-27T12:44:16.860Z,99206.22
2022-08-27T12:46:53.160Z,99203.00
2022-08-27T12:52:01.953Z,99191.06
2022-08-27T12:54:51.773Z,99193.87
2022-08-27T12:57:30.747Z,99199.59
2022-08-27T13:00:13.621Z,99191.56
2022-08-27T13:02:46.913Z,99193.19
2022-08-27T13:05:18.275Z,99190.97
2022-08-27T13:07:51.211Z,99188.53
2022-08-27T13:10:22.331Z,99191.38
2022-08-27T13:13:02.323Z,99189.19
2022-08-27T13:15:30.331Z,99190.66
2022-08-27T13:18:04.246Z,99187.78
2022-08-27T13:20:36.693Z,99189.75
2022-08-27T13:23:08.980Z,99184.53
2022-08-27T13:25:38.185Z,99182.00
2022-08-27T13:28:14.544Z,99183.25
2022-08-27T13:30:47.256Z,99179.19
2022-08-27T13:33:17.160Z,99186.19
2022-08-27T13:35:47.569Z,99187.00
2022-08-27T13:38:15.982Z,99192.41
2022-08-27T13:40:55.057Z,99188.78
2022-08-27T13:43:39.931Z,99185.94
2022-08-27T13:46:40.841Z,99180.97
2022-08-27T13:49:23.431Z,99192.47
2022-08-27T13:51:58.798Z,99191.28
2022-08-27T13:54:31.952Z,99185.75
2022-08-27T13:57:04.956Z,99184.25
2022-08-27T13:59:43.242Z,99182.22
2022-08-27T14:04:52.900Z,99185.00
2022-08-27T14:07:20.708Z,99184.87
2022-08-27T14:09:59.945Z,99177.22
2022-08-27T14:12:33.103Z,99182.47
2022-08-27T14:15:19.891Z,99192.31
2022-08-27T14:17:57.127Z,99187.97
2022-08-27T14:20:26.641Z,99181.88
2022-08-27T14:23:03.641Z,99184.16
2022-08-27T14:25:35.099Z,99184.84
2022-08-27T14:28:03.699Z,99193.22
2022-08-27T14:30:33.052Z,99188.16
2022-08-27T14:33:05.047Z,99188.06
2022-08-27T14:35:34.947Z,99187.66
2022-08-27T14:38:27.936Z,99177.97
2022-08-27T14:40:58.947Z,99178.41
2022-08-27T14:43:27.037Z,99177.84
2022-08-27T14:45:55.351Z,99175.50
2022-08-27T14:48:29.004Z,99174.47
2022-08-27T14:51:00.190Z,99179.91
2022-08-27T14:53:31.960Z,99177.31
2022-08-27T14:56:08.390Z,99182.00
2022-08-27T14:58:41.827Z,99180.31
2022-08-27T15:01:16.021Z,99187.41
2022-08-27T15:03:54.055Z,99187.91
2022-08-27T15:06:29.088Z,99185.16
2022-08-27T15:08:59.037Z,99188.19
2022-08-27T15:11:32.163Z,99195.31
2022-08-27T15:14:04.915Z,99192.06
2022-08-27T15:16:36.280Z,99195.06
2022-08-27T15:19:07.948Z,99199.47
2022-08-27T15:21:42.973Z,99193.50
2022-08-27T15:24:21.014Z,99201.25
2022-08-27T15:26:49.416Z,99195.66
2022-08-27T15:29:27.352Z,99201.41
2022-08-27T15:31:55.982Z,99203.53
2022-08-27T15:34:32.008Z,99207.13
2022-08-27T15:37:01.226Z,99202.47
2022-08-27T15:39:31.610Z,99201.50
2022-08-27T15:42:07.028Z,99205.31
2022-08-27T15:44:38.211Z,99198.78
2022-08-27T15:47:21.364Z,99204.09
2022-08-27T15:49:52.940Z,99211.62
2022-08-27T15:52:22.150Z,99210.16
2022-08-27T15:54:50.178Z,99203.88
2022-08-27T15:57:22.037Z,99203.25
2022-08-27T16:02:28.019Z,99207.91
2022-08-27T16:05:01.962Z,99205.75
2022-08-27T16:07:39.966Z,99200.81
2022-08-27T16:10:15.105Z,99200.41
2022-08-27T16:12:42.351Z,99206.53
2022-08-27T16:15:11.197Z,99197.72
2022-08-27T16:17:39.645Z,99201.59
2022-08-27T16:20:08.297Z,99207.81
2022-08-27T16:22:37.047Z,99211.34
2022-08-27T16:25:05.783Z,99206.75
2022-08-27T16:27:34.980Z,99208.87
2022-08-27T16:30:05.197Z,99213.44
2022-08-27T16:32:32.871Z,99207.97
2022-08-27T16:35:00.789Z,99202.97
2022-08-27T16:37:29.246Z,99206.78
2022-08-27T16:40:09.051Z,99207.44
2022-08-27T16:42:39.098Z,99212.53
2022-08-27T16:48:03.173Z,99217.53
2022-08-27T16:50:33.832Z,99211.19
2022-08-27T16:53:07.214Z,99217.47
2022-08-27T16:58:20.144Z,99215.47
2022-08-27T17:00:51.176Z,99217.47
2022-08-27T17:03:22.981Z,99216.34
2022-08-27T17:06:00.375Z,99220.25
2022-08-27T17:08:47.951Z,99229.78
2022-08-27T17:11:27.823Z,99226.59
2022-08-27T17:14:05.984Z,99225.84
2022-08-27T17:16:36.402Z,99235.03
2022-08-27T17:19:05.165Z,99241.34
2022-08-27T17:21:32.959Z,99244.69
2022-08-27T17:24:13.439Z,99253.69
2022-08-27T17:26:43.557Z,99264.41
2022-08-27T17:29:20.044Z,99274.06
2022-08-27T17:31:50.293Z,99278.50
2022-08-27T17:34:22.137Z,99289.84
2022-08-27T17:36:52.972Z,99288.94
2022-08-27T17:39:21.303Z,99293.63
2022-08-27T17:41:51.910Z,99292.28
2022-08-27T17:44:27.679Z,99290.84
2022-08-27T17:46:58.251Z,99305.25
2022-08-27T17:49:31.353Z,99299.72
2022-08-27T17:52:09.761Z,99308.22
2022-08-27T17:54:48.043Z,99308.34
2022-08-27T17:57:29.959Z,99304.34
2022-08-27T18:00:11.050Z,99311.03
2022-08-27T18:02:47.122Z,99310.53
2022-08-27T18:05:24.027Z,99308.37
2022-08-27T18:07:52.394Z,99311.97
2022-08-27T18:10:24.149Z,99311.72
2022-08-27T18:13:05.666Z,99311.28
2022-08-27T18:15:43.487Z,99305.47
2022-08-27T18:18:13.071Z,99307.84
2022-08-27T18:20:42.686Z,99313.31
2022-08-27T18:23:14.931Z,99315.66
2022-08-27T18:25:43.498Z,99323.13
2022-08-27T18:28:15.083Z,99320.72
2022-08-27T18:30:47.126Z,99324.38
2022-08-27T18:33:16.999Z,99333.56
2022-08-27T18:35:47.827Z,99326.38
2022-08-27T18:38:24.735Z,99323.19
2022-08-27T18:40:59.428Z,99334.75
2022-08-27T18:43:34.020Z,99335.09
2022-08-27T18:46:04.366Z,99335.97
2022-08-27T18:48:35.353Z,99336.50
2022-08-27T18:51:10.387Z,99340.22
2022-08-27T18:56:23.535Z,99333.66
2022-08-27T19:01:32.993Z,99315.94
2022-08-27T19:04:02.539Z,99325.31
2022-08-27T19:06:30.360Z,99325.31
2022-08-27T19:08:59.148Z,99332.59
2022-08-27T19:11:45.560Z,99332.03
2022-08-27T19:14:16.018Z,99331.34
2022-08-27T19:16:50.743Z,99329.63
2022-08-27T19:22:17.202Z,99329.87
2022-08-27T19:25:01.085Z,99333.00
2022-08-27T19:27:38.297Z,99330.81
2022-08-27T19:30:15.218Z,99318.06
2022-08-27T19:32:45.532Z,99323.19
2022-08-27T19:35:15.323Z,99324.03
2022-08-27T19:37:53.548Z,99326.50
2022-08-27T19:40:26.110Z,99328.25
2022-08-27T19:42:56.697Z,99321.41
2022-08-27T19:48:05.442Z,99323.66
2022-08-27T19:50:38.109Z,99323.37
2022-08-27T19:53:17.026Z,99324.69
2022-08-27T19:55:47.995Z,99330.22
2022-08-27T19:58:22.069Z,99332.81
2022-08-27T20:00:57.247Z,99325.63
2022-08-27T20:03:26.654Z,99327.22
2022-08-27T20:05:58.000Z,99337.16
2022-08-27T20:08:30.334Z,99344.63
2022-08-27T20:11:10.045Z,99343.88
2022-08-27T20:13:50.251Z,99346.41
2022-08-27T20:16:23.064Z,99352.66
2022-08-27T20:19:00.233Z,99351.16
2022-08-27T20:21:45.301Z,99346.41
2022-08-27T20:24:15.019Z,99348.62
2022-08-27T20:26:44.832Z,99351.97
2022-08-27T20:29:32.753Z,99354.47
2022-08-27T20:32:10.234Z,99349.94
2022-08-27T20:34:40.575Z,99342.44
2022-08-27T20:37:09.523Z,99353.72
2022-08-27T20:39:40.042Z,99352.59
2022-08-27T20:42:10.032Z,99358.84
2022-08-27T20:44:42.709Z,99355.72
2022-08-27T20:49:52.307Z,99356.19
2022-08-27T20:52:20.768Z,99354.28
2022-08-27T20:54:51.070Z,99357.28
2022-08-27T20:57:22.096Z,99348.59
2022-08-27T21:02:47.233Z,99354.53
2022-08-27T21:05:19.970Z,99350.00
2022-08-27T21:07:49.025Z,99354.38
2022-08-27T21:10:18.305Z,99350.06
2022-08-27T21:12:49.680Z,99366.63
2022-08-27T21:15:19.909Z,99357.12
2022-08-27T21:17:52.483Z,99370.03
2022-08-27T21:20:20.298Z,99367.47
2022-08-27T21:22:52.084Z,99359.78
2022-08-27T21:25:21.022Z,99370.97
2022-08-27T21:27:49.411Z,99360.37
2022-08-27T21:30:17.144Z,99367.81
2022-08-27T21:32:48.277Z,99377.34
2022-08-27T21:35:17.214Z,99370.91
2022-08-27T21:37:48.080Z,99379.44
2022-08-27T21:40:20.128Z,99377.16
2022-08-27T21:42:50.063Z,99372.41
2022-08-27T21:45:20.042Z,99377.59
2022-08-27T21:47:48.346Z,99376.81
2022-08-27T21:50:20.591Z,99378.44
2022-08-27T21:52:49.630Z,99379.88
2022-08-27T21:55:17.990Z,99374.78
2022-08-27T21:57:56.705Z,99379.12
2022-08-27T22:00:30.561Z,99377.31
2022-08-27T22:03:05.008Z,99380.19
2022-08-27T22:05:41.825Z,99368.91
2022-08-27T22:08:10.355Z,99375.75
2022-08-27T22:10:39.471Z,99376.63
2022-08-27T22:13:07.870Z,99368.34
2022-08-27T22:15:36.739Z,99364.53
2022-08-27T22:18:07.411Z,99363.47
2022-08-27T22:20:37.406Z,99360.19
2022-08-27T22:23:05.950Z,99355.56
2022-08-27T22:25:33.394Z,99353.50
2022-08-27T22:28:00.778Z,99355.88
2022-08-27T22:30:28.498Z,99351.91
2022-08-27T22:32:56.297Z,99352.97
2022-08-27T22:35:24.988Z,99353.44
2022-08-27T22:37:56.258Z,99350.00
2022-08-27T22:40:24.654Z,99355.03
2022-08-27T22:42:54.390Z,99351.53
2022-08-27T22:45:23.133Z,99354.00
2022-08-27T22:47:50.614Z,99351.16
2022-08-27T22:50:19.100Z,99355.84
2022-08-27T22:52:48.705Z,99358.25
2022-08-27T22:55:20.138Z,99351.41
2022-08-27T22:57:50.155Z,99361.25
2022-08-27T23:00:22.985Z,99361.41
2022-08-27T23:02:50.937Z,99364.88
2022-08-27T23:05:20.407Z,99354.13
2022-08-27T23:07:48.090Z,99359.25
2022-08-27T23:10:19.739Z,99363.97
2022-08-27T23:12:47.516Z,99357.69
2022-08-27T23:15:16.021Z,99363.72
2022-08-27T23:17:43.931Z,99361.84
2022-08-27T23:20:11.905Z,99364.12
2022-08-27T23:22:39.356Z,99360.28
2022-08-27T23:25:27.328Z,99371.81
2022-08-27T23:27:58.293Z,99367.78
2022-08-27T23:30:28.074Z,99381.09
2022-08-27T23:32:55.539Z,99422.97
2022-08-27T23:35:23.567Z,99453.69
2022-08-27T23:37:53.634Z,99461.97
2022-08-27T23:40:21.841Z,99466.72
2022-08-27T23:42:49.599Z,99445.41
2022-08-27T23:45:18.787Z,99442.44
2022-08-27T23:47:47.296Z,99470.28
2022-08-27T23:50:15.794Z,99480.56
2022-08-27T23:52:46.778Z,99474.56
2022-08-27T23:55:14.578Z,99467.56
2022-08-27T23:57:42.658Z,99472.59
